Time;durP1;ratioP1;P1;durP2;ratioP2;P2;SDS_P1;SDS_P2;PMS_P1;PMS_P2;Temp;Humidity;BMP_temperature;BMP_pressure;BME280_temperature;BME280_humidity;BME280_pressure;Samples;Min_cycle;Max_cycle;Signal;HPM_P1;HPM_P2
2023/12/19 00:02:07;;;;;;;46.80;18.40;;;8.00;91.40;;;;;;5059144;28;20059;-80
2023/12/19 00:04:36;;;;;;;39.80;17.23;;;8.00;91.50;;;;;;5066708;28;20051;-80
2023/12/19 00:07:03;;;;;;;35.85;15.55;;;8.00;91.50;;;;;;5068071;28;20294;-80
2023/12/19 00:09:30;;;;;;;33.05;13.80;;;8.00;91.60;;;;;;5063585;28;20143;-80
2023/12/19 00:11:56;;;;;;;34.15;16.05;;;8.00;91.80;;;;;;5046103;28;20053;-80
2023/12/19 00:14:23;;;;;;;39.38;18.45;;;8.00;91.70;;;;;;5047678;28;20056;-80
2023/12/19 00:16:50;;;;;;;37.20;17.87;;;8.00;91.80;;;;;;5047880;28;20049;-79
2023/12/19 00:19:17;;;;;;;33.53;15.05;;;8.00;91.80;;;;;;5045324;28;20272;-79
2023/12/19 00:21:46;;;;;;;34.45;16.60;;;8.00;91.70;;;;;;5047356;28;20054;-79
2023/12/19 00:24:13;;;;;;;34.13;16.02;;;8.00;91.70;;;;;;5046689;28;20602;-79
2023/12/19 00:26:40;;;;;;;34.50;15.35;;;8.00;91.60;;;;;;5047452;28;20057;-79
2023/12/19 00:29:07;;;;;;;36.87;18.17;;;8.00;91.60;;;;;;5047104;28;20626;-79
2023/12/19 00:31:34;;;;;;;32.42;13.93;;;8.00;91.70;;;;;;5047897;28;20714;-79
2023/12/19 00:34:01;;;;;;;34.95;14.35;;;8.00;91.70;;;;;;5046873;28;20065;-79
2023/12/19 00:36:28;;;;;;;33.92;15.98;;;8.00;91.60;;;;;;5046022;28;20136;-79
2023/12/19 00:38:57;;;;;;;33.17;13.70;;;8.00;91.80;;;;;;5048105;28;20057;-79
2023/12/19 00:41:24;;;;;;;31.97;14.93;;;8.00;91.90;;;;;;5047981;28;20467;-79
2023/12/19 00:43:51;;;;;;;31.20;15.82;;;8.10;91.90;;;;;;5046856;28;20774;-79
2023/12/19 00:46:23;;;;;;;34.15;14.73;;;8.00;91.90;;;;;;5047775;28;20055;-79
2023/12/19 00:48:50;;;;;;;29.92;14.15;;;8.10;91.90;;;;;;5046641;28;20049;-79
2023/12/19 00:51:17;;;;;;;30.50;13.70;;;8.10;91.90;;;;;;5046282;28;20046;-79
2023/12/19 00:53:45;;;;;;;29.97;13.90;;;8.10;91.80;;;;;;5031916;28;20046;-79
2023/12/19 00:56:13;;;;;;;28.35;15.43;;;8.10;91.70;;;;;;5030690;28;20288;-79
2023/12/19 00:58:41;;;;;;;29.60;15.32;;;8.10;91.80;;;;;;5046777;28;20163;-79
2023/12/19 01:01:09;;;;;;;26.77;12.27;;;8.10;91.70;;;;;;5047948;28;20115;-79
2023/12/19 01:03:37;;;;;;;27.85;14.63;;;8.10;91.50;;;;;;5046244;28;20087;-79
2023/12/19 01:06:05;;;;;;;29.67;13.50;;;8.10;91.70;;;;;;5043116;28;20045;-79
2023/12/19 01:08:32;;;;;;;26.10;13.48;;;8.10;91.60;;;;;;5046388;28;20303;-79
2023/12/19 01:10:59;;;;;;;22.05;12.82;;;8.10;91.50;;;;;;5029121;28;20053;-78
2023/12/19 01:13:28;;;;;;;29.48;13.95;;;8.10;91.80;;;;;;5026311;28;20121;-79
2023/12/19 01:15:55;;;;;;;28.52;13.70;;;8.10;91.70;;;;;;5026444;28;20057;-79
2023/12/19 01:18:22;;;;;;;30.07;13.20;;;8.10;91.60;;;;;;5041565;28;20053;-79
2023/12/19 01:20:50;;;;;;;29.40;15.10;;;8.10;91.70;;;;;;5067821;28;20371;-79
2023/12/19 01:23:17;;;;;;;27.23;14.27;;;8.10;91.80;;;;;;5065893;28;21091;-79
2023/12/19 01:25:44;;;;;;;26.60;12.85;;;8.10;91.90;;;;;;5067654;28;20053;-79
2023/12/19 01:28:12;;;;;;;18.98;9.55;;;8.10;91.90;;;;;;5056451;28;20112;-79
2023/12/19 01:30:41;;;;;;;27.13;14.53;;;8.10;92.00;;;;;;5046164;28;20049;-79
2023/12/19 01:33:09;;;;;;;27.02;14.10;;;8.10;91.90;;;;;;5062756;28;20272;-78
2023/12/19 01:35:36;;;;;;;21.17;10.95;;;8.10;92.00;;;;;;5029290;28;20052;-78
2023/12/19 01:38:03;;;;;;;24.08;12.60;;;8.10;92.00;;;;;;5047350;28;20061;-79
2023/12/19 01:40:31;;;;;;;24.23;13.45;;;8.10;92.00;;;;;;5046990;28;20092;-78
2023/12/19 01:42:58;;;;;;;22.63;11.80;;;8.10;92.00;;;;;;5045700;28;20136;-78
2023/12/19 01:45:27;;;;;;;21.05;12.20;;;8.10;92.00;;;;;;5045747;28;20819;-78
2023/12/19 01:47:56;;;;;;;20.55;10.30;;;8.10;92.00;;;;;;5044468;28;20046;-78
2023/12/19 01:50:24;;;;;;;22.08;10.50;;;8.20;92.00;;;;;;5044279;28;20059;-78
2023/12/19 01:52:55;;;;;;;19.13;10.75;;;8.10;92.00;;;;;;5043960;28;20050;-78
2023/12/19 01:55:24;;;;;;;21.20;11.20;;;8.10;92.10;;;;;;5044585;28;20050;-78
2023/12/19 01:57:52;;;;;;;18.30;10.15;;;8.20;92.00;;;;;;5044311;28;20292;-78
2023/12/19 02:00:20;;;;;;;21.95;11.18;;;8.20;91.90;;;;;;5045910;28;20050;-78
2023/12/19 02:02:48;;;;;;;23.20;11.30;;;8.20;91.90;;;;;;5044941;28;20160;-79
2023/12/19 02:05:17;;;;;;;19.50;9.05;;;8.20;91.80;;;;;;5050623;28;20061;-78
2023/12/19 02:07:44;;;;;;;21.23;11.17;;;8.10;91.80;;;;;;5049402;28;20060;-78
2023/12/19 02:10:11;;;;;;;19.05;9.75;;;8.10;91.90;;;;;;5049101;28;20257;-79
2023/12/19 02:12:39;;;;;;;20.02;10.15;;;8.10;91.90;;;;;;5050880;28;20053;-79
2023/12/19 02:15:07;;;;;;;19.48;10.10;;;8.10;91.90;;;;;;5049396;28;20610;-79
2023/12/19 02:17:34;;;;;;;17.95;9.35;;;8.10;91.90;;;;;;5049344;28;20053;-78
2023/12/19 02:20:01;;;;;;;19.57;10.03;;;8.10;91.90;;;;;;5049782;28;20053;-78
2023/12/19 02:22:32;;;;;;;19.80;9.43;;;8.10;91.90;;;;;;5068847;28;20256;-78
2023/12/19 02:25:00;;;;;;;16.15;7.85;;;8.10;91.90;;;;;;5070611;28;20574;-79
2023/12/19 02:27:28;;;;;;;19.23;10.20;;;8.10;91.90;;;;;;5069043;28;20051;-78
2023/12/19 02:29:55;;;;;;;18.30;10.68;;;8.10;91.90;;;;;;5070031;28;20052;-78
2023/12/19 02:32:22;;;;;;;17.57;9.37;;;8.10;91.80;;;;;;5048755;28;20053;-78
2023/12/19 02:34:49;;;;;;;19.25;10.35;;;8.10;91.80;;;;;;5032165;28;20276;-78
2023/12/19 02:37:16;;;;;;;17.00;8.80;;;8.00;91.80;;;;;;5050298;28;20868;-78
2023/12/19 02:39:43;;;;;;;17.90;9.18;;;8.00;91.70;;;;;;5049247;28;20056;-78
2023/12/19 02:42:11;;;;;;;19.45;11.48;;;8.00;91.70;;;;;;5065359;28;20053;-78
2023/12/19 02:44:38;;;;;;;16.30;8.17;;;8.10;91.80;;;;;;5049995;28;20056;-79
2023/12/19 02:47:05;;;;;;;18.35;9.68;;;8.00;91.70;;;;;;5049058;28;21450;-78
2023/12/19 02:49:32;;;;;;;16.35;8.98;;;8.00;91.70;;;;;;5049887;28;20061;-79
2023/12/19 02:51:59;;;;;;;15.00;7.30;;;8.00;91.70;;;;;;5049556;28;21099;-79
2023/12/19 02:54:26;;;;;;;17.65;9.15;;;8.00;91.70;;;;;;5044752;28;20626;-79
2023/12/19 02:56:53;;;;;;;16.10;8.40;;;8.00;91.80;;;;;;5047234;28;20511;-79
2023/12/19 02:59:22;;;;;;;16.33;7.68;;;8.00;91.70;;;;;;5031081;28;20379;-79
2023/12/19 03:01:49;;;;;;;13.93;7.20;;;8.00;91.70;;;;;;5048080;28;20049;-79
2023/12/19 03:04:16;;;;;;;15.07;7.93;;;8.00;91.60;;;;;;5048595;28;20141;-79
2023/12/19 03:06:44;;;;;;;15.38;8.23;;;8.00;91.70;;;;;;5061751;28;20068;-79
2023/12/19 03:09:11;;;;;;;15.37;8.40;;;8.00;91.60;;;;;;5069763;28;20893;-79
2023/12/19 03:11:39;;;;;;;15.15;7.43;;;8.00;91.70;;;;;;5055609;28;20395;-79
2023/12/19 03:14:06;;;;;;;14.55;7.38;;;8.00;91.70;;;;;;5046821;28;20593;-79
2023/12/19 03:16:34;;;;;;;13.77;7.82;;;8.00;91.70;;;;;;5047557;28;20127;-79
2023/12/19 03:19:01;;;;;;;15.38;8.15;;;8.00;91.70;;;;;;5049686;28;20928;-79
2023/12/19 03:21:28;;;;;;;13.97;6.70;;;8.00;91.70;;;;;;5031495;28;20045;-79
2023/12/19 03:23:56;;;;;;;13.38;7.03;;;8.00;91.60;;;;;;5049517;28;20291;-78
2023/12/19 03:26:23;;;;;;;14.02;8.10;;;8.00;91.60;;;;;;5057795;28;20060;-78
2023/12/19 03:28:50;;;;;;;14.55;7.88;;;8.00;91.70;;;;;;5069600;28;20056;-79
2023/12/19 03:31:17;;;;;;;14.75;8.07;;;8.00;91.60;;;;;;5075549;28;20057;-78
2023/12/19 03:33:45;;;;;;;13.63;6.93;;;8.00;91.60;;;;;;5047674;28;20132;-80
2023/12/19 03:36:13;;;;;;;13.63;7.10;;;8.00;91.60;;;;;;5064950;28;20263;-79
2023/12/19 03:38:40;;;;;;;14.43;7.00;;;8.00;91.60;;;;;;5047904;28;20079;-79
2023/12/19 03:41:07;;;;;;;15.05;8.15;;;8.00;91.70;;;;;;5047311;28;20547;-79
2023/12/19 03:43:34;;;;;;;12.82;6.82;;;8.00;91.60;;;;;;5049061;28;20053;-79
2023/12/19 03:46:04;;;;;;;14.40;7.33;;;8.00;91.50;;;;;;5047683;28;20962;-78
2023/12/19 03:48:31;;;;;;;14.40;8.18;;;8.00;91.60;;;;;;5046868;28;20261;-79
2023/12/19 03:51:00;;;;;;;14.63;8.65;;;8.00;91.40;;;;;;5047406;28;20056;-79
2023/12/19 03:53:26;;;;;;;14.48;8.27;;;8.00;91.40;;;;;;5047144;28;20049;-79
2023/12/19 03:55:54;;;;;;;13.00;6.97;;;8.00;91.50;;;;;;5050347;28;20057;-78
2023/12/19 03:58:21;;;;;;;11.07;5.37;;;8.00;91.40;;;;;;5051318;28;20045;-78
2023/12/19 04:00:49;;;;;;;16.08;8.50;;;8.00;91.40;;;;;;5064162;28;20249;-79
2023/12/19 04:03:16;;;;;;;13.23;6.90;;;8.00;91.40;;;;;;5047452;28;20050;-79
2023/12/19 04:05:48;;;;;;;12.95;6.85;;;8.00;91.40;;;;;;5046854;28;20080;-79
2023/12/19 04:08:17;;;;;;;13.25;7.43;;;8.00;91.40;;;;;;5049831;28;20053;-79
2023/12/19 04:10:44;;;;;;;14.40;7.77;;;8.00;91.40;;;;;;5048250;28;20053;-78
2023/12/19 04:13:11;;;;;;;14.85;8.20;;;8.00;91.40;;;;;;5064005;28;20284;-79
2023/12/19 04:15:38;;;;;;;15.48;7.95;;;8.00;91.40;;;;;;5047408;28;20053;-79
2023/12/19 04:18:05;;;;;;;15.65;7.95;;;8.00;91.50;;;;;;5047504;28;20063;-78
2023/12/19 04:20:32;;;;;;;14.88;7.85;;;8.00;91.50;;;;;;5046993;28;20053;-79
2023/12/19 04:22:59;;;;;;;17.53;8.80;;;8.00;91.50;;;;;;5048580;28;20045;-79
2023/12/19 04:25:29;;;;;;;14.43;7.65;;;8.00;91.50;;;;;;5046560;28;20291;-79
2023/12/19 04:27:56;;;;;;;13.90;7.47;;;8.00;91.50;;;;;;5030653;28;20042;-79
2023/12/19 04:30:23;;;;;;;17.98;9.07;;;8.00;91.60;;;;;;5063531;28;20050;-79
2023/12/19 04:32:51;;;;;;;14.55;7.07;;;8.00;91.70;;;;;;5047003;28;20053;-79
2023/12/19 04:35:18;;;;;;;13.97;7.13;;;8.00;91.80;;;;;;5048475;28;20110;-78
2023/12/19 04:37:45;;;;;;;16.35;7.63;;;8.00;91.90;;;;;;5047016;28;20635;-78
2023/12/19 04:40:12;;;;;;;15.50;7.25;;;8.00;91.90;;;;;;5048419;28;20060;-78
2023/12/19 04:42:41;;;;;;;10.82;5.40;;;7.90;92.00;;;;;;5029592;28;20072;-79
2023/12/19 04:45:09;;;;;;;14.52;7.50;;;8.00;92.10;;;;;;5046723;28;20676;-78
2023/12/19 04:47:36;;;;;;;14.97;8.00;;;8.00;92.00;;;;;;5046516;28;20056;-79
2023/12/19 04:50:04;;;;;;;15.98;8.63;;;7.90;92.20;;;;;;5046776;28;20277;-78
2023/12/19 04:52:31;;;;;;;13.93;6.82;;;8.00;92.20;;;;;;5030219;28;20920;-79
2023/12/19 04:54:58;;;;;;;16.85;8.43;;;8.00;92.20;;;;;;5030193;28;20053;-79
2023/12/19 04:57:25;;;;;;;16.08;8.35;;;8.00;92.20;;;;;;5048296;28;20373;-78
2023/12/19 04:59:54;;;;;;;15.83;7.90;;;8.00;92.10;;;;;;5047131;28;20065;-78
2023/12/19 05:02:46;;;;;;;17.35;8.80;;;8.00;92.20;;;;;;5048587;28;20283;-79
2023/12/19 05:05:14;;;;;;;15.25;6.97;;;8.00;92.30;;;;;;5027076;28;20133;-79
2023/12/19 05:07:42;;;;;;;16.55;8.65;;;8.00;92.30;;;;;;5058424;28;21037;-80
2023/12/19 05:10:10;;;;;;;15.98;7.43;;;8.00;92.20;;;;;;5062908;28;20056;-79
2023/12/19 05:12:38;;;;;;;15.17;7.60;;;8.00;92.20;;;;;;5047661;28;20057;-79
2023/12/19 05:15:07;;;;;;;14.68;7.60;;;8.00;92.40;;;;;;5047520;28;21214;-79
2023/12/19 05:17:34;;;;;;;12.02;6.45;;;8.00;92.50;;;;;;5045605;28;20053;-79
2023/12/19 05:20:01;;;;;;;14.45;6.90;;;8.00;92.30;;;;;;5029946;28;20057;-79
2023/12/19 05:22:29;;;;;;;10.75;5.50;;;8.00;92.40;;;;;;5047626;28;20104;-78
2023/12/19 05:24:56;;;;;;;13.27;6.13;;;8.00;92.30;;;;;;5047921;28;20053;-78
2023/12/19 05:27:24;;;;;;;12.13;6.38;;;8.10;92.30;;;;;;5046695;28;21344;-78
2023/12/19 05:29:51;;;;;;;10.48;4.88;;;8.10;92.20;;;;;;5046402;28;20541;-78
2023/12/19 05:32:19;;;;;;;11.43;6.57;;;8.10;92.20;;;;;;5052435;28;20400;-78
2023/12/19 05:34:47;;;;;;;13.35;7.22;;;8.10;92.40;;;;;;5061759;28;20156;-78
2023/12/19 05:37:14;;;;;;;11.13;5.47;;;8.10;92.30;;;;;;5045849;28;20062;-78
2023/12/19 05:39:42;;;;;;;12.77;5.90;;;8.10;92.30;;;;;;5047105;28;20286;-78
2023/12/19 05:42:10;;;;;;;11.05;6.00;;;8.10;92.40;;;;;;5048220;28;20053;-78
2023/12/19 05:44:37;;;;;;;12.05;6.03;;;8.10;92.50;;;;;;5047962;28;20053;-78
2023/12/19 05:47:04;;;;;;;9.85;5.60;;;8.10;92.50;;;;;;5046053;28;20045;-78
2023/12/19 05:49:33;;;;;;;10.27;5.03;;;8.10;92.40;;;;;;5062698;28;21025;-78
2023/12/19 05:51:59;;;;;;;9.60;5.53;;;8.10;92.50;;;;;;5045350;28;20366;-78
2023/12/19 05:54:26;;;;;;;11.77;5.30;;;8.10;92.30;;;;;;5047307;28;20529;-78
2023/12/19 05:56:53;;;;;;;10.52;5.63;;;8.10;92.30;;;;;;5047181;28;20050;-78
2023/12/19 05:59:21;;;;;;;10.85;5.10;;;8.10;92.40;;;;;;5045783;28;20030;-78
2023/12/19 06:01:48;;;;;;;8.47;4.40;;;8.10;92.50;;;;;;5045526;28;20057;-78
2023/12/19 06:04:15;;;;;;;8.55;4.43;;;8.10;92.50;;;;;;5045513;28;20276;-78
2023/12/19 06:06:44;;;;;;;9.93;4.35;;;8.10;92.40;;;;;;5045862;28;20167;-78
2023/12/19 06:09:11;;;;;;;10.38;5.10;;;8.10;92.50;;;;;;5044587;28;20192;-78
2023/12/19 06:11:38;;;;;;;9.13;4.97;;;8.10;92.50;;;;;;5047099;28;20144;-78
2023/12/19 06:14:06;;;;;;;9.60;4.60;;;8.10;92.50;;;;;;5045874;28;20058;-78
2023/12/19 06:16:33;;;;;;;8.65;4.45;;;8.10;92.50;;;;;;5045732;28;20256;-78
2023/12/19 06:19:01;;;;;;;8.73;4.43;;;8.10;92.50;;;;;;5028915;28;21022;-78
2023/12/19 06:21:28;;;;;;;8.73;4.70;;;8.20;92.60;;;;;;5061924;28;20062;-79
2023/12/19 06:24:15;;;;;;;8.77;4.68;;;8.20;92.50;;;;;;5046905;28;20056;-78
2023/12/19 06:27:00;;;;;;;9.57;4.60;;;8.20;92.40;;;;;;5046014;28;20105;-78
2023/12/19 06:29:46;;;;;;;8.70;4.03;;;8.20;92.50;;;;;;5062167;28;20273;-78
2023/12/19 06:32:40;;;;;;;9.18;4.15;;;8.20;92.40;;;;;;5062094;28;20058;-78
2023/12/19 06:35:28;;;;;;;9.32;4.53;;;8.20;92.30;;;;;;5046953;28;20135;-78
2023/12/19 06:38:14;;;;;;;8.07;4.00;;;8.20;92.20;;;;;;5058546;28;20051;-78
2023/12/19 06:41:01;;;;;;;7.90;3.87;;;8.20;92.20;;;;;;5082222;28;20045;-78
2023/12/19 06:43:46;;;;;;;7.55;3.80;;;8.20;92.30;;;;;;5082352;28;20737;-78
2023/12/19 06:46:32;;;;;;;8.23;3.85;;;8.20;92.30;;;;;;5045487;28;20053;-78
2023/12/19 06:49:17;;;;;;;7.30;3.65;;;8.20;92.30;;;;;;5031535;28;20054;-78
2023/12/19 06:52:03;;;;;;;7.90;3.83;;;8.20;92.20;;;;;;5064622;28;20144;-78
2023/12/19 06:54:49;;;;;;;9.27;4.67;;;8.20;92.30;;;;;;5067539;28;20048;-78
2023/12/19 06:57:36;;;;;;;7.57;3.78;;;8.20;92.30;;;;;;5076908;28;20253;-78
2023/12/19 07:00:21;;;;;;;9.82;4.32;;;8.20;92.30;;;;;;5049803;28;20895;-78
2023/12/19 07:03:07;;;;;;;8.55;3.90;;;8.20;92.30;;;;;;5064882;28;20056;-78
2023/12/19 07:05:53;;;;;;;7.97;4.03;;;8.20;92.30;;;;;;5075704;28;20135;-79
2023/12/19 07:08:40;;;;;;;8.03;3.93;;;8.20;92.30;;;;;;5085532;28;20045;-78
2023/12/19 07:11:26;;;;;;;7.47;3.60;;;8.20;92.30;;;;;;5077225;28;20758;-78
2023/12/19 07:14:15;;;;;;;7.38;3.88;;;8.30;92.40;;;;;;5047856;28;20818;-79
2023/12/19 07:17:01;;;;;;;8.13;3.88;;;8.30;92.40;;;;;;5046948;28;20097;-78
2023/12/19 07:19:47;;;;;;;9.27;4.50;;;8.30;92.40;;;;;;5043384;28;20054;-78
2023/12/19 07:22:32;;;;;;;7.70;3.90;;;8.30;92.40;;;;;;5042027;28;20087;-79
2023/12/19 07:25:18;;;;;;;8.60;4.05;;;8.30;92.30;;;;;;5042706;28;20256;-78
2023/12/19 07:28:06;;;;;;;9.40;4.85;;;8.30;92.40;;;;;;5044881;28;20056;-78
2023/12/19 07:30:58;;;;;;;9.18;4.43;;;8.30;92.40;;;;;;5062695;28;20099;-78
2023/12/19 07:33:44;;;;;;;9.38;4.82;;;8.30;92.50;;;;;;5046035;28;20057;-78
2023/12/19 07:36:29;;;;;;;8.03;4.30;;;8.30;92.50;;;;;;5056794;28;20053;-78
2023/12/19 07:39:15;;;;;;;10.18;4.97;;;8.30;92.60;;;;;;5046223;28;20363;-78
2023/12/19 07:42:01;;;;;;;8.55;4.07;;;8.30;92.50;;;;;;5047369;28;20051;-79
2023/12/19 07:44:46;;;;;;;7.95;3.92;;;8.30;92.50;;;;;;5047906;28;20055;-79
2023/12/19 07:47:33;;;;;;;7.90;3.90;;;8.30;92.60;;;;;;5025815;28;20495;-78
2023/12/19 07:50:20;;;;;;;7.33;3.20;;;8.30;92.50;;;;;;5031814;28;20131;-78
2023/12/19 07:53:06;;;;;;;9.45;4.63;;;8.30;92.50;;;;;;5079839;22;20494;-78
2023/12/19 07:55:52;;;;;;;8.65;4.65;;;8.30;92.60;;;;;;5036572;28;20127;-78
2023/12/19 07:58:38;;;;;;;8.25;3.97;;;8.40;92.60;;;;;;5041638;28;20540;-78
2023/12/19 08:01:23;;;;;;;7.57;4.13;;;8.40;92.60;;;;;;5040345;28;20053;-79
2023/12/19 08:04:10;;;;;;;9.03;4.67;;;8.40;92.60;;;;;;5032256;28;20128;-79
2023/12/19 08:06:56;;;;;;;8.77;4.63;;;8.40;92.70;;;;;;5048368;28;20343;-79
2023/12/19 08:09:41;;;;;;;8.65;4.70;;;8.40;92.70;;;;;;5045709;28;20546;-78
2023/12/19 08:12:27;;;;;;;8.05;3.70;;;8.50;92.80;;;;;;5044080;28;20049;-78
2023/12/19 08:15:12;;;;;;;10.50;5.13;;;8.50;92.80;;;;;;5066389;28;20450;-79
2023/12/19 08:18:23;;;;;;;8.70;4.60;;;8.50;92.80;;;;;;5048808;28;20053;-78
2023/12/19 08:21:29;;;;;;;7.97;3.70;;;8.50;93.00;;;;;;5045794;28;20256;-78
2023/12/19 08:24:33;;;;;;;7.45;3.83;;;8.50;92.80;;;;;;5026953;28;20053;-80
2023/12/19 08:27:38;;;;;;;6.38;3.03;;;8.50;93.00;;;;;;5046517;28;20080;-80
2023/12/19 08:30:43;;;;;;;8.10;4.20;;;8.50;93.00;;;;;;5050789;28;20084;-79
2023/12/19 08:33:54;;;;;;;8.27;3.67;;;8.50;93.10;;;;;;5046625;28;20073;-78
2023/12/19 08:37:06;;;;;;;7.97;3.28;;;8.60;93.20;;;;;;5045568;28;20268;-78
2023/12/19 08:40:17;;;;;;;9.05;4.53;;;8.60;93.10;;;;;;5058998;28;20466;-78
2023/12/19 08:43:25;;;;;;;8.18;4.05;;;8.60;93.20;;;;;;5026156;28;20045;-78
2023/12/19 08:46:29;;;;;;;9.13;4.70;;;8.60;93.30;;;;;;5026249;28;20046;-79
2023/12/19 08:49:33;;;;;;;9.17;4.50;;;8.60;93.40;;;;;;5025702;28;20050;-79
2023/12/19 08:52:00;;;;;;;9.05;4.50;;;8.60;93.30;;;;;;5027174;28;20273;-78
2023/12/19 08:54:29;;;;;;;6.47;3.08;;;8.60;93.40;;;;;;5044576;28;20148;-78
2023/12/19 08:56:55;;;;;;;7.70;4.28;;;8.70;93.40;;;;;;5045999;28;20543;-78
2023/12/19 08:59:23;;;;;;;10.65;5.90;;;8.70;93.40;;;;;;5034434;28;20050;-78
2023/12/19 09:01:50;;;;;;;10.33;4.90;;;8.70;93.30;;;;;;5026218;28;20053;-77
2023/12/19 09:04:17;;;;;;;10.23;5.03;;;8.70;93.40;;;;;;5033518;28;20256;-78
2023/12/19 09:06:44;;;;;;;8.57;4.32;;;8.80;93.50;;;;;;5065134;28;20545;-78
2023/12/19 09:09:11;;;;;;;9.40;5.00;;;8.80;93.50;;;;;;5046513;28;20057;-79
2023/12/19 09:11:40;;;;;;;10.93;5.63;;;8.80;93.60;;;;;;5045693;28;20057;-79
2023/12/19 09:14:07;;;;;;;9.80;5.00;;;8.80;93.60;;;;;;5060862;28;20549;-78
2023/12/19 09:16:33;;;;;;;11.43;5.35;;;8.80;93.70;;;;;;5063924;28;20279;-78
2023/12/19 09:19:00;;;;;;;8.23;3.53;;;8.80;93.70;;;;;;5045962;28;20060;-78
2023/12/19 09:21:27;;;;;;;8.73;3.63;;;8.80;93.70;;;;;;5043163;28;20049;-78
2023/12/19 09:23:54;;;;;;;8.50;4.40;;;8.80;93.70;;;;;;5043639;28;20080;-78
2023/12/19 09:26:21;;;;;;;9.93;5.37;;;8.80;93.70;;;;;;5045503;28;20058;-78
2023/12/19 09:28:49;;;;;;;10.55;5.10;;;8.80;93.70;;;;;;5043780;28;20338;-77
2023/12/19 09:31:17;;;;;;;8.63;4.32;;;8.90;93.70;;;;;;5045705;28;20131;-77
2023/12/19 09:33:43;;;;;;;9.60;4.93;;;8.90;93.70;;;;;;5045439;28;20534;-77
2023/12/19 09:36:12;;;;;;;8.15;3.47;;;8.90;93.80;;;;;;5044941;28;20054;-76
2023/12/19 09:38:38;;;;;;;9.07;4.50;;;8.90;93.90;;;;;;5044790;28;20053;-76
2023/12/19 09:41:04;;;;;;;9.80;5.25;;;8.90;93.80;;;;;;5062498;28;20268;-77
2023/12/19 09:43:33;;;;;;;8.07;4.22;;;8.90;93.70;;;;;;5063131;28;20102;-77
2023/12/19 09:46:02;;;;;;;9.48;5.35;;;9.00;93.70;;;;;;5045428;28;20125;-77
2023/12/19 09:48:32;;;;;;;10.65;5.45;;;9.00;93.70;;;;;;5062568;28;20056;-79
2023/12/19 09:51:02;;;;;;;7.90;3.90;;;9.00;93.70;;;;;;5044716;28;20049;-76
2023/12/19 09:53:31;;;;;;;9.40;5.22;;;9.00;93.60;;;;;;5046675;28;20271;-80
2023/12/19 09:55:59;;;;;;;10.65;5.78;;;9.00;93.60;;;;;;5027604;28;20453;-80
2023/12/19 09:58:28;;;;;;;10.20;5.47;;;9.00;93.60;;;;;;5061343;28;20057;-78
2023/12/19 10:00:57;;;;;;;8.07;4.13;;;9.00;93.50;;;;;;5028384;28;20057;-79
2023/12/19 10:03:27;;;;;;;10.10;4.53;;;9.00;93.50;;;;;;5025431;28;20049;-79
2023/12/19 10:05:54;;;;;;;11.00;6.53;;;9.00;93.40;;;;;;5044960;28;20265;-79
2023/12/19 10:08:21;;;;;;;9.32;4.97;;;9.00;93.40;;;;;;5066298;28;20045;-79
2023/12/19 10:10:53;;;;;;;8.55;4.25;;;9.10;93.30;;;;;;5049277;28;20053;-78
2023/12/19 10:13:27;;;;;;;6.45;3.45;;;9.00;93.20;;;;;;5044964;28;20049;-78
2023/12/19 10:16:02;;;;;;;10.63;6.07;;;9.00;93.20;;;;;;5027773;28;20053;-78
2023/12/19 10:18:30;;;;;;;9.18;4.85;;;9.00;93.20;;;;;;5027875;28;20273;-79
2023/12/19 10:21:04;;;;;;;7.70;4.03;;;9.00;93.20;;;;;;5043203;28;20056;-77
2023/12/19 10:23:33;;;;;;;9.43;5.65;;;9.10;93.20;;;;;;5045224;28;20057;-78
2023/12/19 10:26:00;;;;;;;8.13;4.28;;;9.10;93.00;;;;;;5047093;28;20049;-77
2023/12/19 10:28:27;;;;;;;9.30;5.00;;;9.10;92.60;;;;;;5049232;28;20069;-78
2023/12/19 10:31:10;;;;;;;9.75;4.93;;;9.10;92.60;;;;;;5046651;28;20712;-79
2023/12/19 10:33:42;;;;;;;8.57;4.60;;;9.10;92.60;;;;;;5047140;28;20049;-78
2023/12/19 10:36:10;;;;;;;8.23;4.22;;;9.10;92.50;;;;;;5048687;28;20092;-78
2023/12/19 10:38:46;;;;;;;10.93;6.00;;;9.00;92.60;;;;;;5045659;28;20054;-78
2023/12/19 10:41:19;;;;;;;8.37;4.80;;;9.00;92.60;;;;;;5043816;28;20127;-78
2023/12/19 10:43:47;;;;;;;10.07;5.35;;;9.10;92.60;;;;;;5047214;28;20776;-77
2023/12/19 10:46:17;;;;;;;7.53;4.15;;;9.10;92.50;;;;;;5048848;28;20054;-77
2023/12/19 10:48:46;;;;;;;9.57;5.05;;;9.10;92.50;;;;;;5044364;28;20049;-78
2023/12/19 10:51:16;;;;;;;7.00;3.53;;;9.10;92.30;;;;;;5029547;28;20049;-77
2023/12/19 10:53:49;;;;;;;9.40;5.37;;;9.10;92.40;;;;;;5046218;28;20420;-78
2023/12/19 10:56:24;;;;;;;7.20;4.07;;;9.00;92.50;;;;;;5045231;28;20253;-79
2023/12/19 10:58:56;;;;;;;9.45;4.35;;;9.00;92.60;;;;;;5063750;28;20717;-78
2023/12/19 11:01:26;;;;;;;6.88;3.67;;;9.00;92.50;;;;;;5044449;28;20116;-79
2023/12/19 11:03:57;;;;;;;8.95;5.55;;;9.00;92.60;;;;;;5047948;28;20053;-79
2023/12/19 11:06:30;;;;;;;9.00;4.60;;;9.00;92.60;;;;;;5059076;28;20060;-78
2023/12/19 11:09:05;;;;;;;7.70;3.72;;;9.00;92.60;;;;;;5047986;28;20284;-78
2023/12/19 11:11:48;;;;;;;9.15;5.15;;;9.00;92.60;;;;;;5045227;28;20514;-76
2023/12/19 11:14:18;;;;;;;9.45;5.13;;;9.00;92.70;;;;;;5043482;28;20046;-76
2023/12/19 11:16:50;;;;;;;9.35;5.25;;;9.00;92.80;;;;;;5045499;28;20049;-80
2023/12/19 11:19:23;;;;;;;9.23;5.40;;;9.00;92.70;;;;;;5044563;28;20050;-77
2023/12/19 11:21:58;;;;;;;10.75;5.60;;;9.00;92.70;;;;;;5047802;28;20256;-78
2023/12/19 11:24:29;;;;;;;9.25;5.55;;;9.00;92.70;;;;;;5044071;28;20053;-78
2023/12/19 11:27:04;;;;;;;9.15;5.43;;;9.00;92.80;;;;;;5044140;28;20686;-78
2023/12/19 11:29:45;;;;;;;10.35;6.30;;;9.00;92.80;;;;;;5039838;28;20056;-76
2023/12/19 11:32:37;;;;;;;11.23;6.83;;;9.10;92.80;;;;;;5023707;28;20077;-80
2023/12/19 11:35:13;;;;;;;10.02;6.22;;;9.00;92.80;;;;;;5044096;28;20253;-79
2023/12/19 11:37:44;;;;;;;10.75;6.35;;;9.10;92.80;;;;;;5043899;28;20041;-79
2023/12/19 11:40:37;;;;;;;7.75;3.78;;;9.00;92.80;;;;;;5041082;28;20062;-78
2023/12/19 11:43:04;;;;;;;10.55;5.80;;;9.10;92.80;;;;;;5041753;28;20134;-79
2023/12/19 11:45:38;;;;;;;8.53;4.20;;;9.10;92.70;;;;;;5042860;28;20049;-77
2023/12/19 11:48:36;;;;;;;9.23;5.30;;;9.00;92.70;;;;;;5026051;28;20257;-77
2023/12/19 11:51:07;;;;;;;8.40;4.10;;;9.00;92.80;;;;;;5045618;28;20057;-80
2023/12/19 11:53:34;;;;;;;10.32;5.80;;;9.10;92.80;;;;;;5044776;28;20050;-76
2023/12/19 11:56:08;;;;;;;10.75;6.15;;;9.00;92.80;;;;;;5046519;28;20430;-75
2023/12/19 11:58:35;;;;;;;11.03;6.33;;;9.00;92.90;;;;;;5044750;28;20049;-75
2023/12/19 12:01:04;;;;;;;9.98;5.97;;;9.00;92.90;;;;;;5043546;28;21045;-76
2023/12/19 12:03:31;;;;;;;10.30;6.30;;;9.00;92.90;;;;;;5044307;28;20064;-76
2023/12/19 12:05:58;;;;;;;7.72;4.30;;;9.00;93.00;;;;;;5044603;28;20050;-76
2023/12/19 12:08:26;;;;;;;10.25;5.80;;;9.00;93.00;;;;;;5028863;28;20049;-76
2023/12/19 12:11:01;;;;;;;10.30;6.13;;;9.10;93.00;;;;;;5043756;28;20058;-76
2023/12/19 12:13:29;;;;;;;9.10;4.65;;;9.10;93.10;;;;;;5046263;28;20390;-75
2023/12/19 12:15:57;;;;;;;9.07;4.90;;;9.10;93.20;;;;;;5028134;28;20486;-76
2023/12/19 12:18:25;;;;;;;7.88;3.92;;;9.10;93.20;;;;;;5046304;28;20141;-76
2023/12/19 12:20:52;;;;;;;8.85;4.72;;;9.10;93.20;;;;;;5045539;28;20060;-76
2023/12/19 12:23:20;;;;;;;6.30;2.77;;;9.20;93.20;;;;;;5045320;28;20057;-76
2023/12/19 12:25:57;;;;;;;8.45;4.35;;;9.20;93.20;;;;;;5029088;28;20253;-77
2023/12/19 12:28:26;;;;;;;7.10;3.53;;;9.20;93.10;;;;;;5047246;28;20045;-76
2023/12/19 12:30:55;;;;;;;6.68;3.75;;;9.20;93.10;;;;;;5027665;28;20174;-76
2023/12/19 12:33:24;;;;;;;7.18;3.60;;;9.20;93.10;;;;;;5045386;28;20687;-76
2023/12/19 12:35:51;;;;;;;6.97;3.70;;;9.20;93.20;;;;;;5046451;28;20053;-75
2023/12/19 12:38:20;;;;;;;7.57;4.28;;;9.20;93.20;;;;;;5023382;28;20385;-77
2023/12/19 12:40:59;;;;;;;7.53;4.65;;;9.20;93.30;;;;;;5042084;28;20053;-75
2023/12/19 12:43:33;;;;;;;8.55;4.55;;;9.20;93.30;;;;;;5040609;28;20152;-75
2023/12/19 12:46:11;;;;;;;6.05;3.03;;;9.20;93.30;;;;;;5030657;28;20523;-76
2023/12/19 12:48:40;;;;;;;6.63;3.93;;;9.20;93.40;;;;;;5045163;28;20058;-75
2023/12/19 12:51:07;;;;;;;6.43;3.10;;;9.20;93.40;;;;;;5045266;28;20288;-74
2023/12/19 12:53:35;;;;;;;6.13;3.03;;;9.20;93.40;;;;;;5042860;28;20140;-75
2023/12/19 12:56:16;;;;;;;5.50;2.90;;;9.20;93.50;;;;;;5044345;28;20063;-76
2023/12/19 12:58:46;;;;;;;6.75;3.58;;;9.20;93.60;;;;;;5044056;28;20173;-75
2023/12/19 13:01:14;;;;;;;7.37;3.50;;;9.20;93.60;;;;;;5040976;28;20128;-75
2023/12/19 13:03:41;;;;;;;5.82;2.55;;;9.20;93.60;;;;;;5042727;28;20364;-75
2023/12/19 13:06:08;;;;;;;6.88;3.30;;;9.20;93.70;;;;;;5044629;28;20059;-74
2023/12/19 13:08:37;;;;;;;4.95;1.55;;;9.20;93.60;;;;;;5043504;28;20129;-75
2023/12/19 13:11:07;;;;;;;4.45;1.63;;;9.20;93.70;;;;;;5042286;28;20053;-75
2023/12/19 13:13:34;;;;;;;5.50;2.80;;;9.20;93.70;;;;;;5043168;28;20060;-76
2023/12/19 13:16:03;;;;;;;5.72;2.80;;;9.20;93.70;;;;;;5041498;28;20820;-76
2023/12/19 13:18:30;;;;;;;5.50;2.70;;;9.20;93.80;;;;;;5044457;28;20057;-75